createdAt,value
2023-01-04T00:11:53.136Z,1026
2023-01-04T00:26:49.632Z,1025.7
2023-01-04T00:42:01.810Z,1025.4
2023-01-04T00:56:42.382Z,1025.3
2023-01-04T01:11:38.589Z,1024.9
2023-01-04T01:41:30.789Z,1024.7
2023-01-04T01:56:27.286Z,1024.3
2023-01-04T02:11:23.955Z,1024.3
2023-01-04T02:26:20.263Z,1024
2023-01-04T02:41:16.609Z,1023.9
2023-01-04T02:56:12.835Z,1023.4
2023-01-04T03:11:09.259Z,1023.1
2023-01-04T03:26:05.731Z,1022.8
2023-01-04T03:41:02.421Z,1022.8
2023-01-04T03:55:58.239Z,1022.8
2023-01-04T04:10:54.539Z,1022.6
2023-01-04T04:25:50.988Z,1022.3
2023-01-04T04:40:46.246Z,1022.3
2023-01-04T04:55:42.840Z,1022.4
2023-01-04T05:10:38.579Z,1022.2
2023-01-04T05:25:34.801Z,1022.3
2023-01-04T05:40:31.339Z,1022.1
2023-01-04T06:25:19.913Z,1021.6
2023-01-04T06:40:15.671Z,1021.6
2023-01-04T06:55:12.144Z,1021.6
2023-01-04T07:10:09.888Z,1021.2
2023-01-04T07:25:04.528Z,1021.1
2023-01-04T07:54:56.735Z,1021.3
2023-01-04T08:09:53.271Z,1021.4
2023-01-04T08:24:49.610Z,1021.1
2023-01-04T08:39:49.114Z,1021.1
2023-01-04T08:54:42.667Z,1021
2023-01-04T09:09:39.288Z,1021.2
2023-01-04T09:24:35.252Z,1021
2023-01-04T09:39:31.755Z,1021.1
2023-01-04T10:09:24.700Z,1021
2023-01-04T10:24:21.424Z,1021
2023-01-04T10:39:17.444Z,1020.9
2023-01-04T10:54:14.054Z,1020.2
2023-01-04T11:09:13.205Z,1020.2
2023-01-04T11:24:30.768Z,1020
2023-01-04T11:39:03.034Z,1019.8
2023-01-04T11:53:58.608Z,1019.6
2023-01-04T12:08:55.129Z,1019.3
2023-01-04T12:23:51.184Z,1019.4
2023-01-04T12:38:47.792Z,1019.1
2023-01-04T13:08:40.330Z,1019
2023-01-04T13:23:36.654Z,1018.8
2023-01-04T13:38:32.640Z,1018.9
2023-01-04T13:53:28.979Z,1018.8
2023-01-04T14:08:25.166Z,1018.6
2023-01-04T14:23:21.882Z,1018.5
2023-01-04T14:38:18.126Z,1018.6
2023-01-04T14:53:14.234Z,1018.4
2023-01-04T15:08:10.776Z,1018.4
2023-01-04T15:23:07.132Z,1018.4
2023-01-04T15:38:06.383Z,1018.3
2023-01-04T15:52:59.859Z,1018.2
2023-01-04T16:07:56.057Z,1018
2023-01-04T16:22:52.119Z,1018.2
2023-01-04T16:37:48.603Z,1018
2023-01-04T16:52:44.775Z,1018.1
2023-01-04T17:07:41.061Z,1017.9
2023-01-04T17:37:33.837Z,1018
2023-01-04T17:52:31.467Z,1018.3
2023-01-04T18:07:26.192Z,1018.5
2023-01-04T18:22:23.003Z,1018.5
2023-01-04T18:37:19.776Z,1018.7
2023-01-04T18:52:15.699Z,1018.6
2023-01-04T19:07:11.591Z,1018.7
2023-01-04T19:22:07.855Z,1019
2023-01-04T19:37:04.296Z,1018.6
2023-01-04T19:52:00.415Z,1018.8
2023-01-04T20:06:56.694Z,1019
2023-01-04T20:21:53.037Z,1018.9
2023-01-04T20:36:49.205Z,1018.8
2023-01-04T20:51:45.312Z,1018.9
2023-01-04T21:06:41.912Z,1018.9
2023-01-04T21:21:38.008Z,1019.1
2023-01-04T21:36:34.137Z,1018.6
2023-01-04T21:51:30.799Z,1018.8
2023-01-04T22:06:27.011Z,1018.9
2023-01-04T22:21:23.467Z,1018.7
2023-01-04T22:36:23.142Z,1018.8
2023-01-04T22:51:15.898Z,1018.9
2023-01-04T23:06:12.081Z,1019
2023-01-04T23:21:08.528Z,1019.1
2023-01-04T23:36:04.831Z,1019.3
2023-01-04T23:51:00.958Z,1019.2
